Etusivu
METAR-TAF:

METAR-TAF

Lentoasemat :

Niamtougou, Togo

Leveyspiiri: 09-46N, Pituuspiiri: 001-06E, korkeus merenpinnasta: 342 m

Tämänhetkinen sää

Tämä raportti tehtiin 1 tunti ja 7 minuuttia sitten, kello 12.00 UTC
Tuuli 3 kn eri suunnista
Lämpötila 28°C
Kosteus 62%
Ilmanpaine 1014 hPa
Näkyvyys 10 km tai enemmän
Muutamia pilviä 700 ft:n korkeudessa

METAR: DXNG 251200Z VRB03KT 9999 FEW007 28/20 Q1014 NOSIG

Aika: 13:07 (13:07 UTC)

Sääennuste

Tämä raportti tehtiin 8 tuntia ja 7 minuuttia sitten, kello 05.00 UTC
Ennuste voimassa 25. päivästä klo 06 UTC - 26. päivään klo 06 UTC
Tuuli 5 kn eri suunnista
Näkyvyys 10 km tai enemmän
Muutamia pilviä 600 ft:n korkeudessa
Todennäköisyys 40% :
Ajoittain
25. päivästä klo 15 UTC - 25. päivään klo 21 UTC
Hajonneita pilviä 600 ft:n korkeudessa
Muutamia pilviä 1600 ft:n korkeudessa, Cumulonimbus.
ukkosmyrsky

TAF: DXNG 250500Z 2506/2606 VRB05KT 9999 FEW006 PROB40 TEMPO 2515/2521 TS BKN006 FEW016CB

Säähavainnot ja -ennusteet yli 4000 lentoasemalta (METAR- ja TAF-raportit).

Käytössä olevat sääasemat on merkitty karttaan keltaisilla ja punaisilla pisteillä.

Aseta hiiri pisteen päälle nähdäksesi sääaseman nimen.

Klikkaa sitten nähdäksesi säähavainnot ja -ennusteet.

Kartan vaihtaminen: klikkaa mustalla rastilla varustettuja vihreitä pisteitä, niin voit zoomata sisään; viivalla varustettua vihreää pistettä, niin voit zoomata ulos tai vihreitä nuolia, niin pääset viereisille kartoille.


METAR-TAF: